createdAt,value
2023-06-17T00:00:42.428Z,33.23
2023-06-17T00:01:42.332Z,33.23
2023-06-17T00:02:42.382Z,33.20
2023-06-17T00:03:42.342Z,33.17
2023-06-17T00:04:42.332Z,33.22
2023-06-17T00:05:42.302Z,33.21
2023-06-17T00:06:42.275Z,33.21
2023-06-17T00:07:42.262Z,33.22
2023-06-17T00:08:42.212Z,33.19
2023-06-17T00:09:42.221Z,33.17
2023-06-17T00:10:42.227Z,33.18
2023-06-17T00:11:42.182Z,33.18
2023-06-17T00:12:42.198Z,33.24
2023-06-17T00:13:42.167Z,33.13
2023-06-17T00:14:42.157Z,33.16
2023-06-17T00:15:42.118Z,33.17
2023-06-17T00:16:42.174Z,33.14
2023-06-17T00:17:42.129Z,33.17
2023-06-17T00:18:42.090Z,33.17
2023-06-17T00:19:42.089Z,33.18
2023-06-17T00:20:42.090Z,33.15
2023-06-17T00:21:42.045Z,33.19
2023-06-17T00:22:42.052Z,33.21
2023-06-17T00:23:42.022Z,33.28
2023-06-17T00:24:42.011Z,33.28
2023-06-17T00:25:42.006Z,33.39
2023-06-17T00:26:41.996Z,33.46
2023-06-17T00:27:41.984Z,33.47
2023-06-17T00:28:41.942Z,33.51
2023-06-17T00:29:41.930Z,33.61
2023-06-17T00:30:41.925Z,33.73
2023-06-17T00:31:41.905Z,33.79
2023-06-17T00:32:42.273Z,33.87
2023-06-17T00:33:41.864Z,33.78
2023-06-17T00:34:41.841Z,33.83
2023-06-17T00:35:41.868Z,33.86
2023-06-17T00:36:41.832Z,33.94
2023-06-17T00:37:41.825Z,34.04
2023-06-17T00:38:41.807Z,34.13
2023-06-17T00:39:41.777Z,34.20
2023-06-17T00:40:41.777Z,34.20
2023-06-17T00:41:41.778Z,34.26
2023-06-17T00:42:41.767Z,34.33
2023-06-17T00:43:41.779Z,34.33
2023-06-17T00:44:41.754Z,34.29
2023-06-17T00:45:41.757Z,34.31
2023-06-17T00:46:41.787Z,34.28
2023-06-17T00:47:41.805Z,34.28
2023-06-17T00:48:41.714Z,34.24
2023-06-17T00:49:41.687Z,34.21
2023-06-17T00:50:41.684Z,34.17
2023-06-17T00:51:41.667Z,34.17
2023-06-17T00:52:42.894Z,34.14
2023-06-17T00:53:41.646Z,34.12
2023-06-17T00:54:41.637Z,34.12
2023-06-17T00:55:41.620Z,34.11
2023-06-17T00:56:41.598Z,34.12
2023-06-17T00:57:41.601Z,34.09
2023-06-17T00:58:41.595Z,34.10
2023-06-17T00:59:41.558Z,34.13
2023-06-17T01:00:41.592Z,34.12
2023-06-17T01:01:41.540Z,34.19
2023-06-17T01:02:41.812Z,34.09
2023-06-17T01:03:41.678Z,34.08
2023-06-17T01:04:41.648Z,34.12
2023-06-17T01:05:41.583Z,34.17
2023-06-17T01:06:41.601Z,34.08
2023-06-17T01:07:41.617Z,34.10
2023-06-17T01:08:41.575Z,34.09
2023-06-17T01:09:41.579Z,34.08
2023-06-17T01:10:41.567Z,34.07
2023-06-17T01:11:41.555Z,34.00
2023-06-17T01:12:41.544Z,34.07
2023-06-17T01:13:41.568Z,34.09
2023-06-17T01:14:41.541Z,34.05
2023-06-17T01:15:41.537Z,34.05
2023-06-17T01:16:41.570Z,34.12
2023-06-17T01:17:41.551Z,34.12
2023-06-17T01:18:41.487Z,34.04
2023-06-17T01:19:41.496Z,34.05
2023-06-17T01:20:41.480Z,34.03
2023-06-17T01:21:41.501Z,34.07
2023-06-17T01:22:41.453Z,34.09
2023-06-17T01:23:41.484Z,34.00
2023-06-17T01:24:41.468Z,34.02
2023-06-17T01:25:41.474Z,33.94
2023-06-17T01:26:41.471Z,34.01
2023-06-17T01:27:41.470Z,34.02
2023-06-17T01:28:41.453Z,34.02
2023-06-17T01:29:41.407Z,34.02
2023-06-17T01:30:41.465Z,34.01
2023-06-17T01:31:41.416Z,34.00
2023-06-17T01:32:41.489Z,33.98
2023-06-17T01:33:41.458Z,33.98
2023-06-17T01:34:41.436Z,33.98
2023-06-17T01:35:41.442Z,33.97
2023-06-17T01:36:41.442Z,33.94
2023-06-17T01:37:41.436Z,33.98
2023-06-17T01:38:41.419Z,33.95
2023-06-17T01:39:41.426Z,34.04
2023-06-17T01:40:41.429Z,34.00
2023-06-17T01:41:41.437Z,33.95
2023-06-17T01:42:41.420Z,34.00
2023-06-17T01:43:41.450Z,33.93
2023-06-17T01:44:41.391Z,33.97
2023-06-17T01:45:41.451Z,33.92
2023-06-17T01:46:41.413Z,33.92
2023-06-17T01:47:41.467Z,33.88
2023-06-17T01:48:41.441Z,33.91
2023-06-17T01:49:41.408Z,33.89
2023-06-17T01:50:41.403Z,33.89
2023-06-17T01:51:41.367Z,33.93
2023-06-17T01:52:41.395Z,33.93
2023-06-17T01:53:41.367Z,33.89
2023-06-17T01:54:41.355Z,33.88
2023-06-17T01:55:41.387Z,33.86
2023-06-17T01:56:41.441Z,33.69
2023-06-17T01:57:41.387Z,33.74
2023-06-17T01:58:41.371Z,33.77
2023-06-17T01:59:41.357Z,33.82
2023-06-17T02:00:41.337Z,33.82
2023-06-17T02:01:41.347Z,33.89
2023-06-17T02:02:41.504Z,33.94
2023-06-17T02:03:41.428Z,33.98
2023-06-17T02:04:41.380Z,34.05
2023-06-17T02:05:41.418Z,33.98
2023-06-17T02:06:41.400Z,34.03
2023-06-17T02:07:41.400Z,34.03
2023-06-17T02:08:41.414Z,34.05
2023-06-17T02:09:41.414Z,34.10
2023-06-17T02:10:41.438Z,34.07
2023-06-17T02:11:41.456Z,34.13
2023-06-17T02:12:41.493Z,34.11
2023-06-17T02:13:41.498Z,34.07
2023-06-17T02:14:41.512Z,34.14
2023-06-17T02:15:41.567Z,34.12
2023-06-17T02:16:41.661Z,34.11
2023-06-17T02:17:41.611Z,34.15
2023-06-17T02:18:41.603Z,34.16
2023-06-17T02:19:41.675Z,34.19
2023-06-17T02:20:41.728Z,34.16
2023-06-17T02:21:41.717Z,34.03
2023-06-17T02:22:41.712Z,33.98
2023-06-17T02:23:41.773Z,34.02
2023-06-17T02:24:41.759Z,33.98
2023-06-17T02:25:41.780Z,33.91
2023-06-17T02:26:41.801Z,33.98
2023-06-17T02:27:41.805Z,33.95
2023-06-17T02:28:41.824Z,33.85
2023-06-17T02:29:41.894Z,33.85
2023-06-17T02:30:41.913Z,33.74
2023-06-17T02:31:42.054Z,33.68
2023-06-17T02:32:41.996Z,33.64
2023-06-17T02:33:42.009Z,33.58
2023-06-17T02:34:42.021Z,33.57
2023-06-17T02:35:42.048Z,33.53
2023-06-17T02:36:42.045Z,33.50
2023-06-17T02:37:42.087Z,33.51
2023-06-17T02:38:42.095Z,33.58
2023-06-17T02:39:42.104Z,33.54
2023-06-17T02:40:42.144Z,33.47
2023-06-17T02:41:42.187Z,33.54
2023-06-17T02:42:42.196Z,33.47
2023-06-17T02:43:42.267Z,33.52
2023-06-17T02:44:42.211Z,33.49
2023-06-17T02:45:42.225Z,33.51
2023-06-17T02:46:42.266Z,33.48
2023-06-17T02:47:42.383Z,33.48
2023-06-17T02:48:42.248Z,33.46
2023-06-17T02:49:42.294Z,33.43
2023-06-17T02:50:42.283Z,33.33
2023-06-17T02:51:42.333Z,33.28
2023-06-17T02:52:42.323Z,33.26
2023-06-17T02:53:42.327Z,33.33
2023-06-17T02:54:42.322Z,33.24
2023-06-17T02:55:42.330Z,33.18
2023-06-17T02:56:42.377Z,33.14
2023-06-17T02:57:42.392Z,33.10
2023-06-17T02:58:42.416Z,33.03
2023-06-17T02:59:42.390Z,32.99
2023-06-17T03:00:42.471Z,33.01
2023-06-17T03:01:42.472Z,33.08
2023-06-17T03:02:42.545Z,33.03
2023-06-17T03:03:42.457Z,32.96
2023-06-17T03:04:42.474Z,32.86
2023-06-17T03:05:42.586Z,32.94
2023-06-17T03:06:42.571Z,32.95
2023-06-17T03:07:42.572Z,33.04
2023-06-17T03:08:42.649Z,32.98
2023-06-17T03:09:42.695Z,33.09
2023-06-17T03:10:42.712Z,33.17
2023-06-17T03:11:42.760Z,33.25
2023-06-17T03:12:42.784Z,33.33
2023-06-17T03:13:42.835Z,33.29
2023-06-17T03:14:42.895Z,33.37
2023-06-17T03:15:42.926Z,33.43
2023-06-17T03:16:42.968Z,33.47
2023-06-17T03:17:43.060Z,33.56
2023-06-17T03:18:43.089Z,33.62
2023-06-17T03:19:43.102Z,33.58
2023-06-17T03:20:43.155Z,33.54
2023-06-17T03:21:43.192Z,33.56
2023-06-17T03:22:43.267Z,33.64
2023-06-17T03:23:43.305Z,33.62
2023-06-17T03:24:43.361Z,33.60
2023-06-17T03:25:43.382Z,33.63
2023-06-17T03:26:43.435Z,33.70
2023-06-17T03:27:43.500Z,33.63
2023-06-17T03:28:43.546Z,33.61
2023-06-17T03:29:43.626Z,33.60
2023-06-17T03:30:43.684Z,33.54
2023-06-17T03:31:43.713Z,33.49
2023-06-17T03:32:43.834Z,33.46
2023-06-17T03:33:43.790Z,33.34
2023-06-17T03:34:43.844Z,33.19
2023-06-17T03:35:43.853Z,33.03
2023-06-17T03:36:43.887Z,32.88
2023-06-17T03:37:43.923Z,32.84
2023-06-17T03:38:43.947Z,32.87
2023-06-17T03:39:44.015Z,32.85
2023-06-17T03:40:44.042Z,32.89
2023-06-17T03:41:44.082Z,32.96
2023-06-17T03:42:44.171Z,32.91
2023-06-17T03:43:44.243Z,32.98
2023-06-17T03:44:44.235Z,33.00
2023-06-17T03:45:44.286Z,32.96
2023-06-17T03:46:44.372Z,32.93
2023-06-17T03:47:44.418Z,32.89
2023-06-17T03:48:44.459Z,32.88
2023-06-17T03:49:44.504Z,32.85
2023-06-17T03:50:44.538Z,32.82
2023-06-17T03:51:44.603Z,32.85
2023-06-17T03:52:44.628Z,32.83
2023-06-17T03:53:44.657Z,32.96
2023-06-17T03:54:44.701Z,32.88
2023-06-17T03:55:44.811Z,32.86
2023-06-17T03:56:44.801Z,32.86
2023-06-17T03:57:44.853Z,32.86
2023-06-17T03:58:44.878Z,32.83
2023-06-17T03:59:44.938Z,32.81
2023-06-17T04:00:45.018Z,32.78
2023-06-17T04:01:45.039Z,32.80
2023-06-17T04:02:45.113Z,32.81
2023-06-17T04:03:45.177Z,32.77
2023-06-17T04:04:45.211Z,32.79
2023-06-17T04:05:45.194Z,32.76
2023-06-17T04:06:45.228Z,32.78
2023-06-17T04:07:45.268Z,32.73
2023-06-17T04:08:45.300Z,32.75
2023-06-17T04:10:01.673Z,32.73
2023-06-17T04:10:46.326Z,32.70
2023-06-17T04:11:45.351Z,32.67
2023-06-17T04:12:45.322Z,32.67
2023-06-17T04:13:45.288Z,32.68
2023-06-17T04:14:45.292Z,32.63
2023-06-17T04:15:45.304Z,32.62
2023-06-17T04:16:45.326Z,32.59
2023-06-17T04:17:45.305Z,32.46
2023-06-17T04:18:45.283Z,32.51
2023-06-17T04:19:45.281Z,32.46
2023-06-17T04:20:45.282Z,32.46
2023-06-17T04:21:45.261Z,32.45
2023-06-17T04:22:45.256Z,32.53
2023-06-17T04:23:45.246Z,32.46
2023-06-17T04:24:45.253Z,32.52
2023-06-17T04:25:45.254Z,32.54
2023-06-17T04:26:45.284Z,32.56
2023-06-17T04:27:45.302Z,32.56
2023-06-17T04:28:45.370Z,32.56
2023-06-17T04:29:45.384Z,32.59
2023-06-17T04:30:45.400Z,32.60
2023-06-17T04:31:45.434Z,32.53
2023-06-17T04:32:45.513Z,32.56
2023-06-17T04:33:45.532Z,32.55
2023-06-17T04:34:45.545Z,32.55
2023-06-17T04:35:45.552Z,32.57
2023-06-17T04:36:45.622Z,32.55
2023-06-17T04:37:45.649Z,32.55
2023-06-17T04:38:45.685Z,32.52
2023-06-17T04:39:45.734Z,32.51
2023-06-17T04:40:45.704Z,32.53
2023-06-17T04:41:45.708Z,32.46
2023-06-17T04:42:45.749Z,32.46
2023-06-17T04:43:45.741Z,32.46
2023-06-17T04:44:45.752Z,32.41
2023-06-17T04:45:45.801Z,32.43
2023-06-17T04:46:45.846Z,32.45
2023-06-17T04:47:45.862Z,32.40
2023-06-17T04:48:45.804Z,32.42
2023-06-17T04:49:45.848Z,32.39
2023-06-17T04:50:45.863Z,32.38
2023-06-17T04:51:45.882Z,32.41
2023-06-17T04:52:45.919Z,32.38
2023-06-17T04:53:46.000Z,32.32
2023-06-17T04:54:45.947Z,32.34
2023-06-17T04:55:45.973Z,32.35
2023-06-17T04:56:46.027Z,32.35
2023-06-17T04:57:46.049Z,32.29
2023-06-17T04:58:46.026Z,32.35
2023-06-17T04:59:46.070Z,32.23
2023-06-17T05:00:46.193Z,32.17
2023-06-17T05:01:46.128Z,32.20
2023-06-17T05:02:46.155Z,32.20
2023-06-17T05:03:46.223Z,32.13
2023-06-17T05:04:46.153Z,32.14
2023-06-17T05:05:46.160Z,32.13
2023-06-17T05:06:46.225Z,32.15
2023-06-17T05:07:46.229Z,32.17
2023-06-17T05:08:46.238Z,32.18
2023-06-17T05:09:46.248Z,32.15
2023-06-17T05:10:46.266Z,32.18
2023-06-17T05:11:46.285Z,32.15
2023-06-17T05:12:46.283Z,32.06
2023-06-17T05:13:46.316Z,32.11
2023-06-17T05:14:46.366Z,32.10
2023-06-17T05:15:46.382Z,32.10
2023-06-17T05:16:46.426Z,32.11
2023-06-17T05:17:46.432Z,32.03
2023-06-17T05:18:46.456Z,32.04
2023-06-17T05:19:46.442Z,32.03
2023-06-17T05:20:46.485Z,32.04
2023-06-17T05:21:46.497Z,32.06
2023-06-17T05:22:46.525Z,32.04
2023-06-17T05:23:46.557Z,32.07
2023-06-17T05:24:46.660Z,32.04
2023-06-17T05:25:46.554Z,32.05
2023-06-17T05:26:46.555Z,32.06
2023-06-17T05:27:46.587Z,32.07
2023-06-17T05:28:46.589Z,32.00
2023-06-17T05:29:46.685Z,31.97
2023-06-17T05:30:46.692Z,31.96
2023-06-17T05:31:46.673Z,32.03
2023-06-17T05:32:46.720Z,32.01
2023-06-17T05:33:46.704Z,32.05
2023-06-17T05:34:46.709Z,32.06
2023-06-17T05:35:46.714Z,31.98
2023-06-17T05:36:46.771Z,31.96
2023-06-17T05:37:46.777Z,31.98
2023-06-17T05:38:46.790Z,32.01
2023-06-17T05:39:46.812Z,32.01
2023-06-17T05:40:46.860Z,32.11
2023-06-17T05:41:46.903Z,32.09
2023-06-17T05:42:46.913Z,32.05
2023-06-17T05:43:46.913Z,32.11
2023-06-17T05:44:46.957Z,32.05
2023-06-17T05:45:46.974Z,31.97
2023-06-17T05:46:46.988Z,32.03
2023-06-17T05:47:47.013Z,32.01
2023-06-17T05:48:47.029Z,32.03
2023-06-17T05:49:47.045Z,32.00
2023-06-17T05:50:47.081Z,32.01
2023-06-17T05:51:47.097Z,32.05
2023-06-17T05:52:47.175Z,32.04
2023-06-17T05:53:47.229Z,32.03
2023-06-17T05:54:47.151Z,32.03
2023-06-17T05:55:47.215Z,32.08
2023-06-17T05:56:47.241Z,32.02
2023-06-17T05:57:47.345Z,32.04
2023-06-17T05:58:47.268Z,32.07
2023-06-17T05:59:47.289Z,32.03
2023-06-17T06:00:47.317Z,32.06
2023-06-17T06:01:47.374Z,31.97
2023-06-17T06:02:47.416Z,31.92
2023-06-17T06:03:47.386Z,31.96
2023-06-17T06:04:47.328Z,32.05
2023-06-17T06:05:47.370Z,32.04
2023-06-17T06:06:47.349Z,31.96
2023-06-17T06:07:47.397Z,31.94
2023-06-17T06:08:47.354Z,31.96
2023-06-17T06:09:47.376Z,32.03
2023-06-17T06:10:47.395Z,32.03
2023-06-17T06:11:47.431Z,32.07
2023-06-17T06:12:47.444Z,32.08
2023-06-17T06:13:47.505Z,32.01
2023-06-17T06:14:47.495Z,32.04
2023-06-17T06:15:47.616Z,32.07
2023-06-17T06:16:47.725Z,32.08
2023-06-17T06:17:47.648Z,32.07
2023-06-17T06:18:47.673Z,32.11
2023-06-17T06:19:47.700Z,32.08
2023-06-17T06:20:47.756Z,32.01
2023-06-17T06:21:47.786Z,32.08
2023-06-17T06:22:47.793Z,32.16
2023-06-17T06:23:47.890Z,32.16
2023-06-17T06:24:47.960Z,32.12
2023-06-17T06:25:47.927Z,32.09
2023-06-17T06:26:47.997Z,32.08
2023-06-17T06:27:48.027Z,32.07
2023-06-17T06:28:48.074Z,32.01
2023-06-17T06:29:48.065Z,32.05
2023-06-17T06:30:48.090Z,31.99
2023-06-17T06:31:48.173Z,32.00
2023-06-17T06:32:48.200Z,31.99
2023-06-17T06:33:48.236Z,32.00
2023-06-17T06:34:48.259Z,32.01
2023-06-17T06:35:48.275Z,32.02
2023-06-17T06:36:48.378Z,31.96
2023-06-17T06:37:48.366Z,31.93
2023-06-17T06:38:48.414Z,31.94
2023-06-17T06:39:48.424Z,31.90
2023-06-17T06:40:48.461Z,31.85
2023-06-17T06:41:48.489Z,31.77
2023-06-17T06:42:48.507Z,31.69
2023-06-17T06:43:48.550Z,31.71
2023-06-17T06:44:48.606Z,31.73
2023-06-17T06:45:48.678Z,31.62
2023-06-17T06:46:48.699Z,31.63
2023-06-17T06:47:48.772Z,31.71
2023-06-17T06:48:48.755Z,31.70
2023-06-17T06:49:48.777Z,31.78
2023-06-17T06:50:48.860Z,31.78
2023-06-17T06:51:48.906Z,31.70
2023-06-17T06:52:48.939Z,31.67
2023-06-17T06:53:48.956Z,31.70
2023-06-17T06:54:48.968Z,31.76
2023-06-17T06:55:49.020Z,31.71
2023-06-17T06:56:49.287Z,31.69
2023-06-17T06:57:49.099Z,31.69
2023-06-17T06:58:49.123Z,31.75
2023-06-17T06:59:52.327Z,31.71
2023-06-17T07:00:49.160Z,31.71
2023-06-17T07:01:49.123Z,31.65
2023-06-17T07:02:49.184Z,31.67
2023-06-17T07:03:49.129Z,31.67
2023-06-17T07:04:49.524Z,31.69
2023-06-17T07:05:49.129Z,31.63
2023-06-17T07:06:49.123Z,31.63
2023-06-17T07:07:49.103Z,31.65
2023-06-17T07:08:49.138Z,31.62
2023-06-17T07:09:49.093Z,31.55
2023-06-17T07:10:49.119Z,31.53
2023-06-17T07:11:49.083Z,31.51
2023-06-17T07:12:49.076Z,31.39
2023-06-17T07:13:49.067Z,31.45
2023-06-17T07:14:49.068Z,31.44
2023-06-17T07:15:49.086Z,31.45
2023-06-17T07:16:49.191Z,31.29
2023-06-17T07:17:49.079Z,31.21
2023-06-17T07:18:49.030Z,31.17
2023-06-17T07:19:49.046Z,31.26
2023-06-17T07:20:49.017Z,31.26
2023-06-17T07:21:49.036Z,31.36
2023-06-17T07:22:48.995Z,31.23
2023-06-17T07:23:49.078Z,31.21
2023-06-17T07:24:48.976Z,31.29
2023-06-17T07:25:49.015Z,31.14
2023-06-17T07:26:49.042Z,31.16
2023-06-17T07:27:48.977Z,31.14
2023-06-17T07:28:48.995Z,31.17
2023-06-17T07:29:48.976Z,31.14
2023-06-17T07:30:49.050Z,31.18
2023-06-17T07:31:48.971Z,31.21
2023-06-17T07:32:49.019Z,31.25
2023-06-17T07:33:48.964Z,31.28
2023-06-17T07:34:48.968Z,31.29
2023-06-17T07:35:48.939Z,31.30
2023-06-17T07:36:48.956Z,31.32
2023-06-17T07:37:48.910Z,31.30
2023-06-17T07:38:48.906Z,31.30
2023-06-17T07:39:48.924Z,31.37
2023-06-17T07:40:48.889Z,31.38
2023-06-17T07:41:48.888Z,31.29
2023-06-17T07:42:48.900Z,31.27
2023-06-17T07:43:48.856Z,31.35
2023-06-17T07:44:48.861Z,31.35
2023-06-17T07:45:48.898Z,31.25
2023-06-17T07:46:48.934Z,31.24
2023-06-17T07:47:48.904Z,31.27
2023-06-17T07:48:48.861Z,31.29
2023-06-17T07:49:48.853Z,31.25
2023-06-17T07:50:48.820Z,31.17
2023-06-17T07:51:48.810Z,31.14
2023-06-17T07:52:48.818Z,31.07
2023-06-17T07:53:48.800Z,31.05
2023-06-17T07:54:48.802Z,31.06
2023-06-17T07:55:48.781Z,31.10
2023-06-17T07:56:48.749Z,31.10
2023-06-17T07:57:48.738Z,31.09
2023-06-17T07:58:48.741Z,31.11
2023-06-17T07:59:48.750Z,31.04
2023-06-17T08:00:48.738Z,31.09
2023-06-17T08:01:48.824Z,31.05
2023-06-17T08:02:48.885Z,31.04
2023-06-17T08:03:48.795Z,30.98
2023-06-17T08:04:48.722Z,30.94
2023-06-17T08:05:48.708Z,30.93
2023-06-17T08:06:48.668Z,30.96
2023-06-17T08:07:48.682Z,30.86
2023-06-17T08:08:48.663Z,30.85
2023-06-17T08:09:48.679Z,30.91
2023-06-17T08:10:48.679Z,30.87
2023-06-17T08:11:48.669Z,30.84
2023-06-17T08:12:48.661Z,30.81
2023-06-17T08:13:48.653Z,30.83
2023-06-17T08:14:48.653Z,30.77
2023-06-17T08:15:48.650Z,30.79
2023-06-17T08:16:48.779Z,30.72
2023-06-17T08:17:48.690Z,30.73
2023-06-17T08:18:48.661Z,30.65
2023-06-17T08:19:48.692Z,30.67
2023-06-17T08:20:48.686Z,30.67
2023-06-17T08:21:48.681Z,30.62
2023-06-17T08:22:48.663Z,30.61
2023-06-17T08:23:48.712Z,30.57
2023-06-17T08:24:48.699Z,30.56
2023-06-17T08:25:48.669Z,30.57
2023-06-17T08:26:48.669Z,30.54
2023-06-17T08:27:48.849Z,30.53
2023-06-17T08:28:48.689Z,30.51
2023-06-17T08:29:48.717Z,30.47
2023-06-17T08:30:48.816Z,30.57
2023-06-17T08:31:48.750Z,30.45
2023-06-17T08:32:48.807Z,30.49
2023-06-17T08:33:48.779Z,30.46
2023-06-17T08:34:48.754Z,30.45
2023-06-17T08:35:48.751Z,30.51
2023-06-17T08:36:48.793Z,30.42
2023-06-17T08:37:48.779Z,30.46
2023-06-17T08:38:48.813Z,30.35
2023-06-17T08:39:48.825Z,30.20
2023-06-17T08:40:48.866Z,30.28
2023-06-17T08:41:48.890Z,30.24
2023-06-17T08:42:48.909Z,30.21
2023-06-17T08:43:48.923Z,30.24
2023-06-17T08:44:48.920Z,30.15
2023-06-17T08:45:48.969Z,30.14
2023-06-17T08:46:48.959Z,30.22
2023-06-17T08:47:48.953Z,30.17
2023-06-17T08:48:48.949Z,30.15
2023-06-17T08:49:49.003Z,30.15
2023-06-17T08:50:48.965Z,30.17
2023-06-17T08:51:48.983Z,30.18
2023-06-17T08:52:48.986Z,30.18
2023-06-17T08:53:49.041Z,30.13
2023-06-17T08:54:49.064Z,30.17
2023-06-17T08:55:49.074Z,30.16
2023-06-17T08:56:49.089Z,30.13
2023-06-17T08:57:49.139Z,30.19
2023-06-17T08:58:49.162Z,30.15
2023-06-17T08:59:49.208Z,30.09
2023-06-17T09:00:49.274Z,30.08
2023-06-17T09:01:49.258Z,30.06
2023-06-17T09:02:49.321Z,30.06
2023-06-17T09:03:49.304Z,30.11
2023-06-17T09:04:49.393Z,30.09
2023-06-17T09:05:49.358Z,30.15
2023-06-17T09:06:49.405Z,30.12
2023-06-17T09:07:49.419Z,30.09
2023-06-17T09:08:49.434Z,30.13
2023-06-17T09:09:49.496Z,30.15
2023-06-17T09:10:49.525Z,30.15
2023-06-17T09:11:51.917Z,30.13
2023-06-17T09:12:49.695Z,30.11
2023-06-17T09:13:49.780Z,30.10
2023-06-17T09:14:49.774Z,30.07
2023-06-17T09:15:49.803Z,30.07
2023-06-17T09:16:49.944Z,30.08
2023-06-17T09:17:49.931Z,30.08
2023-06-17T09:18:49.938Z,30.04
2023-06-17T09:19:49.968Z,30.00
2023-06-17T09:20:50.010Z,30.00
2023-06-17T09:21:50.048Z,30.00
2023-06-17T09:22:50.050Z,30.00
2023-06-17T09:23:50.178Z,29.96
2023-06-17T09:24:50.139Z,30.02
2023-06-17T09:25:50.183Z,30.00
2023-06-17T09:26:50.212Z,29.99
2023-06-17T09:28:05.922Z,29.96
2023-06-17T09:28:51.225Z,29.97
2023-06-17T09:29:50.165Z,29.97
2023-06-17T09:30:50.154Z,29.94
2023-06-17T09:31:50.157Z,29.94
2023-06-17T09:32:50.153Z,29.92
2023-06-17T09:33:50.117Z,29.94
2023-06-17T09:34:50.089Z,29.91
2023-06-17T09:35:50.054Z,29.87
2023-06-17T09:36:50.044Z,29.87
2023-06-17T09:38:02.654Z,29.87
2023-06-17T09:38:51.061Z,29.84
2023-06-17T09:39:50.058Z,29.83
2023-06-17T09:40:50.047Z,29.85
2023-06-17T09:41:49.973Z,29.87
2023-06-17T09:42:49.974Z,29.85
2023-06-17T09:43:49.948Z,29.85
2023-06-17T09:44:49.906Z,29.81
2023-06-17T09:45:49.898Z,29.80
2023-06-17T09:46:49.982Z,29.83
2023-06-17T09:47:49.967Z,29.79
2023-06-17T09:48:49.876Z,29.68
2023-06-17T09:49:49.917Z,29.68
2023-06-17T09:50:49.979Z,29.68
2023-06-17T09:51:50.035Z,29.69
2023-06-17T09:52:50.042Z,29.72
2023-06-17T09:53:50.091Z,29.66
2023-06-17T09:54:50.141Z,29.72
2023-06-17T09:55:50.177Z,29.71
2023-06-17T09:56:50.257Z,29.65
2023-06-17T09:57:50.262Z,29.62
2023-06-17T09:58:50.324Z,29.72
2023-06-17T09:59:50.332Z,29.71
2023-06-17T10:00:50.398Z,29.65
2023-06-17T10:01:50.419Z,29.60
2023-06-17T10:02:50.522Z,29.67
2023-06-17T10:03:50.679Z,29.59
2023-06-17T10:04:50.556Z,29.64
2023-06-17T10:05:50.575Z,29.63
2023-06-17T10:06:50.626Z,29.63
2023-06-17T10:07:50.705Z,29.57
2023-06-17T10:08:50.711Z,29.60
2023-06-17T10:09:50.784Z,29.60
2023-06-17T10:10:50.813Z,29.61
2023-06-17T10:11:50.839Z,29.63
2023-06-17T10:12:50.869Z,29.60
2023-06-17T10:13:50.916Z,29.67
2023-06-17T10:14:50.936Z,29.68
2023-06-17T10:15:50.990Z,29.71
2023-06-17T10:16:51.016Z,29.67
2023-06-17T10:17:51.186Z,29.66
2023-06-17T10:18:51.092Z,29.68
2023-06-17T10:19:51.136Z,29.68
2023-06-17T10:20:51.153Z,29.66
2023-06-17T10:21:51.213Z,29.61
2023-06-17T10:22:51.233Z,29.65
2023-06-17T10:23:51.265Z,29.70
2023-06-17T10:24:51.309Z,29.68
2023-06-17T10:25:51.311Z,29.71
2023-06-17T10:26:51.383Z,29.72
2023-06-17T10:27:51.396Z,29.75
2023-06-17T10:28:51.404Z,29.70
2023-06-17T10:29:51.456Z,29.75
2023-06-17T10:30:51.489Z,29.75
2023-06-17T10:31:51.532Z,29.78
2023-06-17T10:32:52.472Z,29.77
2023-06-17T10:33:51.604Z,29.82
2023-06-17T10:34:51.645Z,29.75
2023-06-17T10:35:51.711Z,29.74
2023-06-17T10:36:51.770Z,29.75
2023-06-17T10:37:51.793Z,29.77
2023-06-17T10:38:51.810Z,29.71
2023-06-17T10:39:51.878Z,29.75
2023-06-17T10:40:51.916Z,29.71
2023-06-17T10:41:51.942Z,29.76
2023-06-17T10:42:51.982Z,29.70
2023-06-17T10:43:52.022Z,29.68
2023-06-17T10:44:52.063Z,29.70
2023-06-17T10:45:52.147Z,29.70
2023-06-17T10:46:52.182Z,29.63
2023-06-17T10:47:52.201Z,29.67
2023-06-17T10:48:52.225Z,29.63
2023-06-17T10:49:52.272Z,29.56
2023-06-17T10:50:52.302Z,29.66
2023-06-17T10:52:52.338Z,29.59
2023-06-17T10:53:52.303Z,29.59
2023-06-17T10:54:52.301Z,29.56
2023-06-17T10:55:52.276Z,29.61
2023-06-17T10:56:52.254Z,29.59
2023-06-17T10:57:52.220Z,29.62
2023-06-17T10:58:52.194Z,29.66
2023-06-17T10:59:52.207Z,29.61
2023-06-17T11:00:52.160Z,29.55
2023-06-17T11:01:52.142Z,29.55
2023-06-17T11:02:52.224Z,29.54
2023-06-17T11:03:52.187Z,29.48
2023-06-17T11:04:52.184Z,29.31
2023-06-17T11:05:52.213Z,29.09
2023-06-17T11:06:52.249Z,28.97
2023-06-17T11:07:52.272Z,28.86
2023-06-17T11:08:52.311Z,28.95
2023-06-17T11:09:52.421Z,28.99
2023-06-17T11:10:52.373Z,28.99
2023-06-17T11:11:52.427Z,29.03
2023-06-17T11:12:52.484Z,28.99
2023-06-17T11:13:52.481Z,28.78
2023-06-17T11:14:52.531Z,28.67
2023-06-17T11:15:52.542Z,28.67
2023-06-17T11:16:52.666Z,28.64
2023-06-17T11:17:52.714Z,28.77
2023-06-17T11:18:52.667Z,28.72
2023-06-17T11:19:52.703Z,28.65
2023-06-17T11:20:52.766Z,28.74
2023-06-17T11:21:52.780Z,28.67
2023-06-17T11:22:52.783Z,28.72
2023-06-17T11:23:52.846Z,28.74
2023-06-17T11:24:52.896Z,28.77
2023-06-17T11:25:53.561Z,28.74
2023-06-17T11:26:52.957Z,28.77
2023-06-17T11:27:52.980Z,28.77
2023-06-17T11:28:53.001Z,28.73
2023-06-17T11:29:53.060Z,28.71
2023-06-17T11:30:53.129Z,28.77
2023-06-17T11:31:53.116Z,28.70
2023-06-17T11:32:53.200Z,28.70
2023-06-17T11:33:53.232Z,28.76
2023-06-17T11:34:53.232Z,28.70
2023-06-17T11:35:53.266Z,28.67
2023-06-17T11:36:53.276Z,28.63
2023-06-17T11:37:53.306Z,28.64
2023-06-17T11:38:53.416Z,28.63
2023-06-17T11:39:53.382Z,28.58
2023-06-17T11:40:53.411Z,28.55
2023-06-17T11:41:53.485Z,28.48
2023-06-17T11:42:53.475Z,28.41
2023-06-17T11:43:53.530Z,28.42
2023-06-17T11:44:53.549Z,28.40
2023-06-17T11:45:53.625Z,28.44
2023-06-17T11:46:53.650Z,28.41
2023-06-17T11:47:53.699Z,28.45
2023-06-17T11:48:53.667Z,28.47
2023-06-17T11:49:53.710Z,28.42
2023-06-17T11:50:53.722Z,28.41
2023-06-17T11:51:53.741Z,28.41
2023-06-17T11:52:53.786Z,28.40
2023-06-17T11:53:53.792Z,28.41
2023-06-17T11:54:53.826Z,28.20
2023-06-17T11:55:53.888Z,28.19
2023-06-17T11:56:53.893Z,28.29
2023-06-17T11:57:53.936Z,28.36
2023-06-17T11:58:53.969Z,28.37
2023-06-17T11:59:54.013Z,28.36
2023-06-17T12:00:54.024Z,28.39
2023-06-17T12:01:54.079Z,28.29
2023-06-17T12:02:54.214Z,28.20
2023-06-17T12:03:54.122Z,28.20
2023-06-17T12:04:54.118Z,28.23
2023-06-17T12:05:54.172Z,28.26
2023-06-17T12:06:54.182Z,28.15
2023-06-17T12:07:54.200Z,28.16
2023-06-17T12:08:54.249Z,28.12
2023-06-17T12:09:54.378Z,28.05
2023-06-17T12:10:54.304Z,28.02
2023-06-17T12:11:54.335Z,28.09
2023-06-17T12:12:54.363Z,28.07
2023-06-17T12:13:54.393Z,27.98
2023-06-17T12:14:54.385Z,27.98
2023-06-17T12:15:54.463Z,28.02
2023-06-17T12:16:54.501Z,27.94
2023-06-17T12:17:54.531Z,27.80
2023-06-17T12:18:54.567Z,27.79
2023-06-17T12:19:54.632Z,27.80
2023-06-17T12:20:54.597Z,27.74
2023-06-17T12:21:54.594Z,27.66
2023-06-17T12:22:54.633Z,27.55
2023-06-17T12:23:54.809Z,27.54
2023-06-17T12:24:54.669Z,27.52
2023-06-17T12:25:54.713Z,27.42
2023-06-17T12:26:54.741Z,27.46
2023-06-17T12:27:54.752Z,27.51
2023-06-17T12:28:54.770Z,27.43
2023-06-17T12:29:54.792Z,27.43
2023-06-17T12:30:54.846Z,27.42
2023-06-17T12:31:54.840Z,27.22
2023-06-17T12:32:54.914Z,27.15
2023-06-17T12:33:54.854Z,27.12
2023-06-17T12:34:54.883Z,27.20
2023-06-17T12:35:54.929Z,27.20
2023-06-17T12:36:54.945Z,27.23
2023-06-17T12:37:55.001Z,27.18
2023-06-17T12:38:54.990Z,27.18
2023-06-17T12:39:55.033Z,27.09
2023-06-17T12:40:55.041Z,26.99
2023-06-17T12:41:55.084Z,27.06
2023-06-17T12:42:55.082Z,26.99
2023-06-17T12:43:55.089Z,27.06
2023-06-17T12:44:55.118Z,27.15
2023-06-17T12:45:55.151Z,27.04
2023-06-17T12:46:55.163Z,27.01
2023-06-17T12:47:55.239Z,26.98
2023-06-17T12:48:55.197Z,26.99
2023-06-17T12:49:55.230Z,26.96
2023-06-17T12:50:55.265Z,26.99
2023-06-17T12:51:55.259Z,26.95
2023-06-17T12:52:55.303Z,26.98
2023-06-17T12:53:55.303Z,27.00